createdAt,value
2023-02-24T04:35:21.240Z,6.37
2023-02-24T04:37:50.958Z,6.18
2023-02-24T04:40:22.177Z,6.32
2023-02-24T04:42:54.123Z,6.34
2023-02-24T04:45:27.523Z,6.42
2023-02-24T04:48:01.060Z,6.49
2023-02-24T04:50:38.403Z,6.52
2023-02-24T04:53:09.452Z,6.39
2023-02-24T04:55:50.796Z,6.33
2023-02-24T04:58:21.501Z,6.45
2023-02-24T05:00:52.826Z,6.24
2023-02-24T05:03:22.416Z,6.27
2023-02-24T05:06:00.133Z,6.37
2023-02-24T05:08:29.176Z,6.50
2023-02-24T05:10:58.527Z,6.43
2023-02-24T05:13:28.129Z,6.46
2023-02-24T05:15:56.789Z,6.35
2023-02-24T05:18:24.382Z,6.38
2023-02-24T05:21:15.071Z,6.37
2023-02-24T05:23:44.767Z,6.35
2023-02-24T05:26:17.659Z,6.45
2023-02-24T05:28:49.438Z,6.33
2023-02-24T05:31:20.147Z,6.34
2023-02-24T05:33:50.132Z,6.43
2023-02-24T05:36:19.255Z,6.63
2023-02-24T05:38:47.909Z,6.61
2023-02-24T05:41:18.327Z,6.37
2023-02-24T05:43:55.024Z,6.41
2023-02-24T05:46:28.379Z,6.39
2023-02-24T05:48:59.632Z,6.51
2023-02-24T05:51:35.167Z,6.57
2023-02-24T05:54:04.689Z,6.73
2023-02-24T05:56:32.978Z,6.68
2023-02-24T05:59:06.657Z,6.61
2023-02-24T06:01:36.119Z,6.71
2023-02-24T06:04:08.036Z,6.75
2023-02-24T06:06:36.866Z,6.86
2023-02-24T06:09:12.902Z,6.90
2023-02-24T06:11:42.271Z,6.95
2023-02-24T06:14:10.800Z,6.83
2023-02-24T06:16:40.090Z,6.92
2023-02-24T06:19:09.293Z,6.85
2023-02-24T06:21:41.330Z,6.75
2023-02-24T06:24:18.719Z,6.50
2023-02-24T06:26:46.580Z,6.71
2023-02-24T06:29:15.034Z,6.76
2023-02-24T06:31:44.223Z,6.45
2023-02-24T06:34:14.049Z,6.72
2023-02-24T06:36:43.158Z,6.98
2023-02-24T06:39:13.587Z,6.84
2023-02-24T06:41:40.780Z,6.73
2023-02-24T06:44:09.524Z,6.81
2023-02-24T06:46:37.439Z,6.78
2023-02-24T06:49:04.628Z,6.76
2023-02-24T06:51:31.989Z,6.75
2023-02-24T06:54:00.720Z,6.79
2023-02-24T06:56:29.052Z,6.78
2023-02-24T06:58:57.051Z,6.87
2023-02-24T07:01:26.941Z,7.01
2023-02-24T07:04:02.573Z,6.98
2023-02-24T07:06:32.019Z,7.10
2023-02-24T07:08:59.291Z,6.76
2023-02-24T07:11:28.039Z,6.73
2023-02-24T07:13:54.951Z,6.85
2023-02-24T07:16:28.764Z,6.92
2023-02-24T07:18:58.389Z,6.92
2023-02-24T07:21:30.224Z,6.76
2023-02-24T07:23:59.166Z,6.84
2023-02-24T07:26:30.416Z,6.83
2023-02-24T07:28:58.226Z,6.91
2023-02-24T07:31:26.300Z,7.00
2023-02-24T07:33:56.861Z,7.04
2023-02-24T07:36:24.996Z,6.98
2023-02-24T07:38:54.039Z,7.12
2023-02-24T07:41:23.325Z,7.25
2023-02-24T07:43:51.882Z,7.32
2023-02-24T07:46:24.584Z,7.55
2023-02-24T07:48:53.058Z,7.64
2023-02-24T07:51:23.037Z,7.81
2023-02-24T07:53:56.801Z,7.87
2023-02-24T07:56:27.148Z,7.69
2023-02-24T07:59:02.226Z,7.96
2023-02-24T08:01:32.321Z,7.85
2023-02-24T08:04:08.151Z,7.86
2023-02-24T08:06:38.140Z,8.05
2023-02-24T08:09:16.908Z,8.16
2023-02-24T08:11:55.579Z,8.30
2023-02-24T08:14:32.747Z,8.35
2023-02-24T08:16:59.768Z,8.21
2023-02-24T08:19:33.300Z,8.30
2023-02-24T08:22:19.497Z,8.50
2023-02-24T08:25:00.690Z,8.66
2023-02-24T08:27:32.566Z,8.19
2023-02-24T08:30:02.947Z,8.35
2023-02-24T08:32:43.995Z,8.37
2023-02-24T08:35:17.301Z,8.34
2023-02-24T08:37:55.331Z,8.45
2023-02-24T08:40:31.644Z,8.31
2023-02-24T08:43:16.308Z,8.41
2023-02-24T08:45:51.867Z,8.20
2023-02-24T08:48:38.071Z,8.26
2023-02-24T08:51:22.641Z,8.45
2023-02-24T08:53:55.450Z,8.45
2023-02-24T08:56:25.772Z,8.26
2023-02-24T08:58:58.713Z,8.18
2023-02-24T09:01:36.860Z,8.18
2023-02-24T09:04:12.107Z,8.20
2023-02-24T09:06:48.889Z,8.32
2023-02-24T09:09:23.006Z,8.21
2023-02-24T09:11:57.237Z,8.20
2023-02-24T09:14:36.727Z,8.14
2023-02-24T09:17:11.388Z,8.30
2023-02-24T09:19:52.385Z,8.18
2023-02-24T09:22:31.603Z,8.45
2023-02-24T09:25:24.368Z,8.59
2023-02-24T09:28:17.464Z,8.94
2023-02-24T09:31:04.934Z,8.84
2023-02-24T09:33:41.799Z,8.61
2023-02-24T09:36:20.226Z,8.73
2023-02-24T09:38:59.439Z,8.88
2023-02-24T09:41:57.139Z,9.05
2023-02-24T09:44:26.423Z,8.96
2023-02-24T09:46:59.869Z,8.77
2023-02-24T09:49:40.182Z,8.78
2023-02-24T09:52:17.378Z,9.04
2023-02-24T09:55:08.826Z,9.10
2023-02-24T09:58:06.440Z,9.13
2023-02-24T10:00:44.199Z,9.31
2023-02-24T10:03:42.256Z,9.48
2023-02-24T10:06:23.456Z,9.59
2023-02-24T10:08:59.713Z,9.77
2023-02-24T10:11:34.021Z,9.96
2023-02-24T10:14:05.814Z,9.93
2023-02-24T10:16:44.372Z,10.07
2023-02-24T10:19:24.307Z,10.32
2023-02-24T10:22:02.617Z,10.14
2023-02-24T10:24:37.692Z,10.11
2023-02-24T10:27:32.951Z,10.12
2023-02-24T10:30:19.693Z,10.23
2023-02-24T10:32:59.021Z,10.46
2023-02-24T10:35:33.729Z,10.53
2023-02-24T10:38:05.459Z,10.49
2023-02-24T10:40:56.619Z,10.26
2023-02-24T10:43:30.594Z,10.29
2023-02-24T10:46:17.461Z,10.27
2023-02-24T10:49:01.470Z,10.71
2023-02-24T10:51:33.216Z,10.81
2023-02-24T10:54:24.418Z,10.77
2023-02-24T10:57:00.929Z,10.70
2023-02-24T10:59:48.316Z,10.64
2023-02-24T11:02:29.996Z,10.76
2023-02-24T11:05:02.803Z,10.82
2023-02-24T11:07:53.765Z,10.80
2023-02-24T11:10:42.776Z,10.78
2023-02-24T11:13:35.287Z,10.72
2023-02-24T11:16:20.862Z,10.78
2023-02-24T11:18:50.159Z,10.82
2023-02-24T11:21:17.912Z,10.94
2023-02-24T11:23:47.887Z,11.16
2023-02-24T11:26:33.179Z,11.17
2023-02-24T11:29:24.965Z,11.37
2023-02-24T11:32:09.121Z,11.55
2023-02-24T11:34:42.110Z,11.65
2023-02-24T11:37:14.571Z,11.54
2023-02-24T11:39:41.569Z,11.51
2023-02-24T11:42:19.601Z,11.35
2023-02-24T11:45:19.761Z,11.18
2023-02-24T11:47:53.098Z,11.05
2023-02-24T11:50:43.990Z,11.18
2023-02-24T11:53:36.087Z,11.04
2023-02-24T11:56:10.938Z,11.11
2023-02-24T11:58:49.169Z,11.30
2023-02-24T12:01:35.644Z,11.27
2023-02-24T12:04:26.573Z,11.48
2023-02-24T12:06:59.572Z,11.56
2023-02-24T12:09:32.690Z,11.63
2023-02-24T12:12:07.701Z,11.50
2023-02-24T12:14:41.162Z,11.23
2023-02-24T12:17:33.736Z,11.51
2023-02-24T12:20:06.148Z,11.46
2023-02-24T12:23:15.849Z,11.52
2023-02-24T12:26:08.968Z,11.80
2023-02-24T12:28:48.982Z,11.82
2023-02-24T12:31:43.851Z,11.92
2023-02-24T12:34:32.318Z,12.07
2023-02-24T12:37:17.681Z,12.01
2023-02-24T12:39:56.965Z,11.73
2023-02-24T12:43:02.318Z,11.51
2023-02-24T12:45:47.884Z,11.45
2023-02-24T12:48:49.225Z,11.35
2023-02-24T12:51:25.622Z,11.26
2023-02-24T12:54:08.403Z,11.24
2023-02-24T12:57:13.784Z,11.35
2023-02-24T12:59:42.063Z,11.46
2023-02-24T13:02:27.860Z,11.71
2023-02-24T13:05:19.841Z,11.62
2023-02-24T13:08:05.265Z,11.41
2023-02-24T13:10:51.355Z,11.28
2023-02-24T13:13:48.898Z,11.28
2023-02-24T13:16:26.801Z,11.18
2023-02-24T13:19:24.189Z,11.08
2023-02-24T13:22:12.829Z,11.46
2023-02-24T13:24:57.042Z,11.44
2023-02-24T13:28:00.813Z,11.58
2023-02-24T13:30:42.816Z,11.59
2023-02-24T13:33:19.052Z,11.58
2023-02-24T13:35:48.304Z,11.45
2023-02-24T13:38:37.704Z,11.40
2023-02-24T13:41:35.901Z,11.50
2023-02-24T13:44:22.186Z,11.40
2023-02-24T13:47:14.250Z,11.43
2023-02-24T13:49:59.910Z,11.60
2023-02-24T13:52:45.458Z,11.78
2023-02-24T13:55:31.009Z,11.83
2023-02-24T13:58:18.183Z,11.72
2023-02-24T14:01:00.342Z,11.71
2023-02-24T14:03:29.681Z,11.80
2023-02-24T14:05:59.256Z,11.84
2023-02-24T14:08:50.974Z,11.95
2023-02-24T14:11:18.540Z,11.92
2023-02-24T14:13:50.529Z,11.70
2023-02-24T14:16:21.686Z,11.79
2023-02-24T14:18:59.322Z,11.82
2023-02-24T14:21:28.681Z,11.84
2023-02-24T14:24:01.216Z,11.91
2023-02-24T14:26:41.519Z,12.06
2023-02-24T14:29:09.205Z,12.08
2023-02-24T14:31:37.665Z,11.98
2023-02-24T14:34:09.169Z,11.91
2023-02-24T14:36:42.268Z,11.78
2023-02-24T14:39:18.524Z,11.82
2023-02-24T14:41:47.576Z,11.85
2023-02-24T14:44:27.501Z,12.01
2023-02-24T14:50:18.984Z,11.91
2023-02-24T14:55:57.119Z,11.94
2023-02-24T14:58:46.164Z,12.01
2023-02-24T15:01:36.978Z,11.91
2023-02-24T15:04:15.854Z,11.98
2023-02-24T15:06:43.968Z,12.06
2023-02-24T15:09:23.920Z,11.93
2023-02-24T15:11:53.353Z,12.07
2023-02-24T15:14:26.793Z,11.97
2023-02-24T15:17:08.618Z,11.90
2023-02-24T15:19:39.198Z,11.86
2023-02-24T15:22:22.419Z,11.87
2023-02-24T15:24:50.623Z,11.88
2023-02-24T15:27:20.766Z,11.81
2023-02-24T15:30:06.739Z,11.75
2023-02-24T15:32:37.812Z,11.77
2023-02-24T15:35:05.641Z,11.72
2023-02-24T15:37:45.139Z,11.64
2023-02-24T15:40:25.148Z,11.67
2023-02-24T15:43:07.739Z,11.64
2023-02-24T15:45:38.088Z,11.54
2023-02-24T15:48:21.925Z,11.45
2023-02-24T15:50:50.461Z,11.46
2023-02-24T15:53:17.807Z,11.48
2023-02-24T15:55:45.273Z,11.45
2023-02-24T15:58:22.135Z,11.42
2023-02-24T16:00:52.642Z,11.29
2023-02-24T16:03:20.830Z,11.07
2023-02-24T16:05:47.776Z,11.26
2023-02-24T16:08:18.840Z,11.34
2023-02-24T16:10:46.492Z,11.33
2023-02-24T16:13:20.575Z,11.27
2023-02-24T16:15:48.395Z,11.36
2023-02-24T16:18:22.224Z,11.26
2023-02-24T16:20:57.235Z,11.22
2023-02-24T16:23:26.642Z,11.18
2023-02-24T16:25:59.242Z,11.14
2023-02-24T16:28:26.759Z,11.14
2023-02-24T16:30:54.353Z,11.11
2023-02-24T16:33:23.712Z,11.06
2023-02-24T16:35:54.879Z,11.04
2023-02-24T16:38:26.861Z,10.99
2023-02-24T16:44:02.224Z,10.85
2023-02-24T16:46:36.108Z,10.73
2023-02-24T16:49:06.979Z,10.68
2023-02-24T16:51:35.357Z,10.69
2023-02-24T16:54:02.483Z,10.65
2023-02-24T17:03:21.646Z,10.68
2023-02-24T17:05:48.869Z,10.67
2023-02-24T17:08:17.165Z,10.70
2023-02-24T17:10:45.209Z,10.67
2023-02-24T17:13:18.374Z,10.72
2023-02-24T17:15:46.860Z,10.72
2023-02-24T17:18:13.898Z,10.74
2023-02-24T17:20:42.250Z,10.67
2023-02-24T17:23:11.322Z,10.56
2023-02-24T17:25:38.513Z,10.25
2023-02-24T17:28:10.526Z,10.39
2023-02-24T17:30:41.829Z,10.26
2023-02-24T17:33:09.049Z,10.27
2023-02-24T17:35:35.886Z,10.22
2023-02-24T17:38:03.041Z,10.13
2023-02-24T17:40:29.878Z,10.02
2023-02-24T17:42:56.826Z,9.93
2023-02-24T17:45:23.708Z,9.82
2023-02-24T17:47:52.707Z,9.93
2023-02-24T17:50:19.666Z,9.75
2023-02-24T17:52:46.772Z,9.82
2023-02-24T17:55:13.763Z,9.90
2023-02-24T17:57:41.265Z,9.89
2023-02-24T18:00:10.630Z,9.91
2023-02-24T18:02:40.661Z,9.84
2023-02-24T18:05:08.540Z,9.87
2023-02-24T18:07:35.725Z,9.84
2023-02-24T18:10:03.521Z,9.89
2023-02-24T18:12:31.461Z,9.89
2023-02-24T18:15:07.904Z,9.93
2023-02-24T18:17:37.669Z,9.81
2023-02-24T18:20:06.911Z,9.90
2023-02-24T18:22:34.590Z,9.91
2023-02-24T18:25:01.799Z,9.79
2023-02-24T18:27:30.895Z,9.73
2023-02-24T18:30:03.336Z,9.77
2023-02-24T18:32:31.513Z,9.64
2023-02-24T18:34:58.527Z,9.65
2023-02-24T18:37:25.470Z,9.74
2023-02-24T18:39:53.375Z,9.84
2023-02-24T18:42:20.605Z,9.82
2023-02-24T18:44:47.586Z,9.71
2023-02-24T18:47:15.391Z,9.72
2023-02-24T18:49:42.485Z,9.73
2023-02-24T18:52:11.588Z,9.64
2023-02-24T18:54:38.688Z,9.62
2023-02-24T18:57:05.621Z,9.66
2023-02-24T18:59:32.665Z,9.68
2023-02-24T19:01:59.989Z,9.75
2023-02-24T19:04:27.050Z,9.76
2023-02-24T19:06:56.593Z,9.74
2023-02-24T19:09:24.031Z,9.77
2023-02-24T19:11:52.198Z,9.81
2023-02-24T19:14:19.247Z,9.80
2023-02-24T19:16:46.396Z,9.83
2023-02-24T19:19:14.657Z,9.75
2023-02-24T19:21:41.860Z,9.67
2023-02-24T19:24:11.207Z,9.66
2023-02-24T19:26:38.695Z,9.70
2023-02-24T19:29:05.872Z,9.68
2023-02-24T19:31:33.831Z,9.58
2023-02-24T19:34:07.462Z,9.41
2023-02-24T19:36:36.474Z,9.52
2023-02-24T19:39:04.306Z,9.31
2023-02-24T19:41:31.422Z,9.27
2023-02-24T19:43:58.502Z,9.06
2023-02-24T19:46:25.851Z,9.05
2023-02-24T19:48:53.593Z,8.97
2023-02-24T19:51:23.022Z,8.87
2023-02-24T19:53:55.698Z,8.81
2023-02-24T19:56:27.535Z,8.85
2023-02-24T19:58:56.449Z,8.67
2023-02-24T20:01:24.845Z,8.75
2023-02-24T20:03:56.329Z,8.85
2023-02-24T20:06:31.446Z,8.77
2023-02-24T20:09:01.508Z,9.01
2023-02-24T20:11:29.902Z,8.89
2023-02-24T20:13:57.274Z,8.83
2023-02-24T20:16:26.145Z,8.84
2023-02-24T20:18:55.457Z,8.76
2023-02-24T20:21:23.129Z,8.73
2023-02-24T20:23:50.645Z,8.60
2023-02-24T20:26:17.829Z,8.50
2023-02-24T20:28:46.488Z,8.39
2023-02-24T20:31:18.649Z,8.31
2023-02-24T20:33:47.001Z,8.14
2023-02-24T20:36:16.908Z,8.26
2023-02-24T20:38:44.202Z,8.22
2023-02-24T20:41:11.681Z,8.11
2023-02-24T20:43:38.989Z,8.12
2023-02-24T20:46:18.280Z,8.11
2023-02-24T20:48:45.544Z,8.14
2023-02-24T20:51:12.518Z,8.09
2023-02-24T20:53:54.531Z,8.10
2023-02-24T20:56:23.135Z,8.03
2023-02-24T20:58:57.406Z,7.84
2023-02-24T21:01:24.307Z,7.83
2023-02-24T21:03:51.715Z,7.82
2023-02-24T21:06:19.087Z,7.84
2023-02-24T21:08:46.480Z,7.74
2023-02-24T21:11:14.461Z,7.79
2023-02-24T21:13:43.430Z,7.94
2023-02-24T21:16:12.387Z,8.04
2023-02-24T21:18:41.408Z,8.15
2023-02-24T21:21:09.236Z,8.09
2023-02-24T21:23:38.208Z,8.00
2023-02-24T21:26:06.816Z,7.99
2023-02-24T21:28:37.122Z,7.91
2023-02-24T21:31:12.704Z,7.81
2023-02-24T21:33:39.868Z,7.76
2023-02-24T21:36:09.780Z,7.82
2023-02-24T21:38:37.442Z,7.77
2023-02-24T21:41:07.287Z,7.84
2023-02-24T21:43:34.559Z,8.00
2023-02-24T21:46:02.838Z,8.04
2023-02-24T21:48:29.682Z,8.04
2023-02-24T21:51:05.567Z,7.94
2023-02-24T21:53:35.368Z,7.94
2023-02-24T21:56:16.260Z,7.82
2023-02-24T21:58:46.773Z,7.54
2023-02-24T22:01:19.312Z,7.56
2023-02-24T22:03:46.497Z,7.56
2023-02-24T22:06:14.957Z,7.56
2023-02-24T22:08:45.675Z,7.36
2023-02-24T22:11:16.461Z,7.25
2023-02-24T22:13:44.656Z,7.18
2023-02-24T22:16:15.834Z,7.15
2023-02-24T22:18:42.813Z,7.15
2023-02-24T22:21:12.596Z,7.06
2023-02-24T22:23:40.088Z,6.95
2023-02-24T22:26:09.759Z,7.00
2023-02-24T22:28:38.594Z,7.04
2023-02-24T22:31:06.767Z,6.98
2023-02-24T22:33:36.302Z,6.99
2023-02-24T22:36:17.098Z,6.90
2023-02-24T22:38:45.777Z,7.04
2023-02-24T22:41:15.801Z,7.06
2023-02-24T22:43:43.469Z,7.08
2023-02-24T22:46:16.305Z,7.10
2023-02-24T22:48:43.828Z,6.91
2023-02-24T22:51:12.345Z,6.81
2023-02-24T22:53:41.886Z,6.83
2023-02-24T22:56:11.628Z,6.89
2023-02-24T22:58:38.962Z,6.91
2023-02-24T23:01:11.661Z,6.82
2023-02-24T23:03:40.100Z,6.70
2023-02-24T23:06:10.261Z,6.59
2023-02-24T23:08:38.662Z,6.74
2023-02-24T23:11:06.976Z,6.86
2023-02-24T23:13:38.301Z,6.86
2023-02-24T23:16:08.944Z,6.95
2023-02-24T23:18:37.004Z,6.92
2023-02-24T23:21:08.195Z,6.79
2023-02-24T23:23:36.625Z,6.55
